createdAt,value
2023-03-26T00:01:37.018Z,23.77
2023-03-26T00:04:06.989Z,34.13
2023-03-26T00:06:39.854Z,29.75
2023-03-26T00:09:09.508Z,33.75
2023-03-26T00:11:36.736Z,39.20
2023-03-26T00:14:04.160Z,29.27
2023-03-26T00:16:33.042Z,25.85
2023-03-26T00:19:01.579Z,38.08
2023-03-26T00:21:30.634Z,26.20
2023-03-26T00:24:04.926Z,33.30
2023-03-26T00:26:37.855Z,22.05
2023-03-26T00:29:07.106Z,29.83
2023-03-26T00:31:35.314Z,31.50
2023-03-26T00:34:04.092Z,28.95
2023-03-26T00:36:31.237Z,24.20
2023-03-26T00:38:58.420Z,31.25
2023-03-26T00:41:27.222Z,25.08
2023-03-26T00:43:57.234Z,31.55
2023-03-26T00:46:30.966Z,29.58
2023-03-26T00:49:02.182Z,24.98
2023-03-26T00:51:30.082Z,33.80
2023-03-26T00:53:58.152Z,27.02
2023-03-26T00:56:26.315Z,27.58
2023-03-26T00:58:53.669Z,29.92
2023-03-26T01:01:29.140Z,29.42
2023-03-26T01:04:08.913Z,35.20
2023-03-26T01:06:39.182Z,29.33
2023-03-26T01:09:16.226Z,30.52
2023-03-26T01:11:44.559Z,27.08
2023-03-26T01:14:16.311Z,22.27
2023-03-26T01:16:45.265Z,27.13
2023-03-26T01:19:21.438Z,31.50
2023-03-26T01:21:49.169Z,23.65
2023-03-26T01:24:16.501Z,29.75
2023-03-26T01:27:02.063Z,38.67
2023-03-26T01:30:05.140Z,24.38
2023-03-26T01:32:50.559Z,30.58
2023-03-26T01:35:42.525Z,33.80
2023-03-26T01:38:35.727Z,17.70
2023-03-26T01:41:12.248Z,32.25
2023-03-26T01:44:07.084Z,30.73
2023-03-26T01:46:36.674Z,30.17
2023-03-26T01:49:05.763Z,22.38
2023-03-26T01:51:35.786Z,37.88
2023-03-26T01:54:06.589Z,32.65
2023-03-26T01:56:51.966Z,24.27
2023-03-26T01:59:18.953Z,29.23
2023-03-26T02:02:14.239Z,34.60
2023-03-26T02:05:08.944Z,31.70
2023-03-26T02:07:45.485Z,23.50
2023-03-26T02:10:21.443Z,25.50
2023-03-26T02:12:48.981Z,29.27
2023-03-26T02:15:17.499Z,27.00
2023-03-26T02:17:44.615Z,33.08
2023-03-26T02:20:14.781Z,22.95
2023-03-26T02:22:46.211Z,26.65
2023-03-26T02:25:22.745Z,27.73
2023-03-26T02:27:51.826Z,20.77
2023-03-26T02:30:25.983Z,27.35
2023-03-26T02:32:54.519Z,31.05
2023-03-26T02:35:22.803Z,36.45
2023-03-26T02:37:51.222Z,30.10
2023-03-26T02:40:21.418Z,31.13
2023-03-26T02:42:49.409Z,23.55
2023-03-26T02:45:16.636Z,44.33
2023-03-26T02:47:43.812Z,29.63
2023-03-26T02:50:12.292Z,31.45
2023-03-26T02:52:39.796Z,26.77
2023-03-26T02:55:07.705Z,31.80
2023-03-26T02:57:34.958Z,25.70
2023-03-26T03:00:05.706Z,23.30
2023-03-26T03:02:32.811Z,29.27
2023-03-26T03:05:01.886Z,20.23
2023-03-26T03:07:29.458Z,30.10
2023-03-26T03:09:56.567Z,19.95
2023-03-26T03:12:23.640Z,23.58
2023-03-26T03:14:51.087Z,23.88
2023-03-26T03:17:21.034Z,20.52
2023-03-26T03:19:48.118Z,28.25
2023-03-26T03:22:15.273Z,26.38
2023-03-26T03:24:44.001Z,20.45
2023-03-26T03:27:11.062Z,27.40
2023-03-26T03:29:38.233Z,26.63
2023-03-26T03:32:07.159Z,28.90
2023-03-26T03:34:34.269Z,22.25
2023-03-26T03:37:01.392Z,22.95
2023-03-26T03:39:28.423Z,30.63
2023-03-26T03:41:55.470Z,17.52
2023-03-26T03:44:22.679Z,20.10
2023-03-26T03:46:54.186Z,25.95
2023-03-26T03:49:21.620Z,19.95
2023-03-26T03:51:48.809Z,22.23
2023-03-26T03:54:15.945Z,23.45
2023-03-26T03:56:45.869Z,23.73
2023-03-26T03:59:13.777Z,32.20
2023-03-26T04:01:43.437Z,24.50
2023-03-26T04:04:10.794Z,24.50
2023-03-26T04:06:38.280Z,26.42
2023-03-26T04:09:05.587Z,31.88
2023-03-26T04:11:32.669Z,28.90
2023-03-26T04:13:59.987Z,24.38
2023-03-26T04:16:27.055Z,34.45
2023-03-26T04:18:54.174Z,23.63
2023-03-26T04:21:21.472Z,26.73
2023-03-26T04:23:48.516Z,22.60
2023-03-26T04:26:20.111Z,18.42
2023-03-26T04:28:54.665Z,19.05
2023-03-26T04:31:24.943Z,22.77
2023-03-26T04:34:00.368Z,18.55
2023-03-26T04:36:32.441Z,31.23
2023-03-26T04:39:03.483Z,26.23
2023-03-26T04:41:30.579Z,28.30
2023-03-26T04:43:57.642Z,34.85
2023-03-26T04:46:24.854Z,27.75
2023-03-26T04:48:53.261Z,21.17
2023-03-26T04:51:27.390Z,24.38
2023-03-26T04:53:58.126Z,21.90
2023-03-26T04:56:31.663Z,25.17
2023-03-26T04:59:01.654Z,18.02
2023-03-26T05:01:29.008Z,28.75
2023-03-26T05:03:57.350Z,23.30
2023-03-26T05:06:28.192Z,26.10
2023-03-26T05:08:55.891Z,30.50
2023-03-26T05:11:23.108Z,24.40
2023-03-26T05:13:50.209Z,19.70
2023-03-26T05:16:17.364Z,24.90
2023-03-26T05:18:44.477Z,20.45
2023-03-26T05:21:11.545Z,27.92
2023-03-26T05:23:38.615Z,27.70
2023-03-26T05:26:07.941Z,25.30
2023-03-26T05:28:35.217Z,25.30
2023-03-26T05:31:03.288Z,30.85
2023-03-26T05:33:30.740Z,27.58
2023-03-26T05:36:15.648Z,25.30
2023-03-26T05:38:47.536Z,26.63
2023-03-26T05:41:14.684Z,30.45
2023-03-26T05:43:41.879Z,31.27
2023-03-26T05:46:09.470Z,30.35
2023-03-26T05:48:38.377Z,24.45
2023-03-26T05:51:05.657Z,28.83
2023-03-26T05:53:32.926Z,20.40
2023-03-26T05:56:00.562Z,33.08
2023-03-26T05:58:29.850Z,22.83
2023-03-26T06:00:58.681Z,26.67
2023-03-26T06:03:26.239Z,22.25
2023-03-26T06:05:53.314Z,28.75
2023-03-26T06:08:21.950Z,31.63
2023-03-26T06:10:51.041Z,16.00
2023-03-26T06:13:19.223Z,23.58
2023-03-26T06:15:46.438Z,31.42
2023-03-26T06:18:13.681Z,28.00
2023-03-26T06:20:42.288Z,29.50
2023-03-26T06:23:09.736Z,28.30
2023-03-26T06:25:38.075Z,26.17
2023-03-26T06:28:06.008Z,25.40
2023-03-26T06:30:33.157Z,20.70
2023-03-26T06:33:00.352Z,23.60
2023-03-26T06:35:28.131Z,26.58
2023-03-26T06:37:55.296Z,29.08
2023-03-26T06:40:22.445Z,30.35
2023-03-26T06:43:06.957Z,26.02
2023-03-26T06:45:36.849Z,28.77
2023-03-26T06:48:04.500Z,26.02
2023-03-26T06:50:32.488Z,22.83
2023-03-26T06:52:59.576Z,26.33
2023-03-26T06:55:27.010Z,28.63
2023-03-26T06:57:57.176Z,24.70
2023-03-26T07:00:24.560Z,22.55
2023-03-26T07:02:51.797Z,21.35
2023-03-26T07:05:18.897Z,26.45
2023-03-26T07:07:47.225Z,28.60
2023-03-26T07:10:15.120Z,20.17
2023-03-26T07:12:43.020Z,19.90
2023-03-26T07:15:10.718Z,22.13
2023-03-26T07:17:38.197Z,26.52
2023-03-26T07:20:06.716Z,23.15
2023-03-26T07:22:34.274Z,20.85
2023-03-26T07:25:02.234Z,28.73
2023-03-26T07:27:47.288Z,25.55
2023-03-26T07:30:32.946Z,29.30
2023-03-26T07:33:08.769Z,24.38
2023-03-26T07:36:05.605Z,22.65
2023-03-26T07:38:50.341Z,35.38
2023-03-26T07:41:39.007Z,26.00
2023-03-26T07:44:13.627Z,27.17
2023-03-26T07:46:41.825Z,26.15
2023-03-26T07:49:12.990Z,34.25
2023-03-26T07:51:40.797Z,27.55
2023-03-26T07:54:11.219Z,25.98
2023-03-26T07:56:49.285Z,27.40
2023-03-26T07:59:40.509Z,26.05
2023-03-26T08:02:41.493Z,30.35
2023-03-26T08:05:29.002Z,29.15
2023-03-26T08:08:46.749Z,21.35
2023-03-26T08:11:38.683Z,25.42
2023-03-26T08:14:17.610Z,23.85
2023-03-26T08:17:16.760Z,31.88
2023-03-26T08:19:52.714Z,19.83
2023-03-26T08:22:29.556Z,23.30
2023-03-26T08:25:18.054Z,23.88
2023-03-26T08:28:00.364Z,24.08
2023-03-26T08:30:28.597Z,27.30
2023-03-26T08:33:20.847Z,21.65
2023-03-26T08:35:49.263Z,32.00
2023-03-26T08:38:18.686Z,26.85
2023-03-26T08:41:25.197Z,26.42
2023-03-26T08:44:02.658Z,38.10
2023-03-26T08:47:16.419Z,24.80
2023-03-26T08:49:59.036Z,22.13
2023-03-26T08:52:34.948Z,21.50
2023-03-26T08:55:54.904Z,29.58
2023-03-26T08:58:53.279Z,22.20
2023-03-26T09:01:41.708Z,33.70
2023-03-26T09:04:36.094Z,37.28
2023-03-26T09:10:01.955Z,35.25
2023-03-26T09:15:36.023Z,22.55
2023-03-26T09:18:24.371Z,26.02
2023-03-26T09:20:57.737Z,26.77
2023-03-26T09:23:27.907Z,26.52
2023-03-26T09:26:03.186Z,30.40
2023-03-26T09:28:55.935Z,27.15
2023-03-26T09:31:46.005Z,32.10
2023-03-26T09:34:26.952Z,34.20
2023-03-26T09:36:53.927Z,26.50
2023-03-26T09:39:34.984Z,36.25
2023-03-26T09:42:09.940Z,34.75
2023-03-26T09:45:02.321Z,32.63
2023-03-26T09:47:56.342Z,25.33
2023-03-26T09:50:41.559Z,23.13
2023-03-26T09:53:37.741Z,41.63
2023-03-26T09:56:22.352Z,28.23
2023-03-26T09:59:15.781Z,34.40
2023-03-26T10:01:47.320Z,32.83
2023-03-26T10:04:50.592Z,32.65
2023-03-26T10:07:23.581Z,32.97
2023-03-26T10:10:21.222Z,28.17
2023-03-26T10:13:14.047Z,33.22
2023-03-26T10:15:41.702Z,25.10
2023-03-26T10:18:27.168Z,33.90
2023-03-26T10:21:16.071Z,31.20
2023-03-26T10:23:57.916Z,30.85
2023-03-26T10:26:36.996Z,27.08
2023-03-26T10:29:25.544Z,35.85
2023-03-26T10:32:18.280Z,34.80
2023-03-26T10:34:46.044Z,32.28
2023-03-26T10:37:54.814Z,31.77
2023-03-26T10:40:36.993Z,34.67
2023-03-26T10:43:31.532Z,30.88
2023-03-26T10:46:42.008Z,38.00
2023-03-26T10:49:14.931Z,33.65
2023-03-26T10:51:58.794Z,32.75
2023-03-26T10:57:11.590Z,62.08
2023-03-26T10:59:38.838Z,66.43
2023-03-26T11:02:29.456Z,85.60
2023-03-26T11:05:33.599Z,83.75
2023-03-26T11:08:36.033Z,67.93
2023-03-26T11:11:11.939Z,60.22
2023-03-26T11:14:31.700Z,59.25
2023-03-26T11:17:40.366Z,58.92
2023-03-26T11:20:25.131Z,61.80
2023-03-26T11:22:57.750Z,68.00
2023-03-26T11:25:28.431Z,66.55
2023-03-26T11:28:23.806Z,74.18
2023-03-26T11:31:35.958Z,74.07
2023-03-26T11:34:11.154Z,67.63
2023-03-26T11:36:43.499Z,72.22
2023-03-26T11:39:21.719Z,66.90
2023-03-26T11:41:52.990Z,70.20
2023-03-26T11:44:24.584Z,73.97
2023-03-26T11:46:59.070Z,77.18
2023-03-26T11:49:26.716Z,64.35
2023-03-26T11:51:54.557Z,77.93
2023-03-26T11:54:23.451Z,79.25
2023-03-26T11:57:04.597Z,84.47
2023-03-26T11:59:58.232Z,78.32
2023-03-26T12:02:39.363Z,69.93
2023-03-26T12:05:22.458Z,74.55
2023-03-26T12:07:58.468Z,59.65
2023-03-26T12:10:28.388Z,59.35
2023-03-26T12:12:59.395Z,54.60
2023-03-26T12:15:27.829Z,56.72
2023-03-26T12:17:58.613Z,76.28
2023-03-26T12:20:25.727Z,102.45
2023-03-26T12:22:59.303Z,58.13
2023-03-26T12:28:18.871Z,59.88
2023-03-26T12:31:18.531Z,62.47
2023-03-26T12:34:03.147Z,65.13
2023-03-26T12:36:33.580Z,61.95
2023-03-26T12:39:16.671Z,83.20
2023-03-26T12:44:44.019Z,72.10
2023-03-26T12:44:59.171Z,67.82
2023-03-26T12:48:01.001Z,61.45
2023-03-26T12:50:34.698Z,50.22
2023-03-26T12:53:18.223Z,55.90
2023-03-26T12:56:07.674Z,53.58
2023-03-26T12:58:51.373Z,61.53
2023-03-26T13:01:46.239Z,55.47
2023-03-26T13:04:30.381Z,60.35
2023-03-26T13:07:13.757Z,50.35
2023-03-26T13:10:04.181Z,44.05
2023-03-26T13:13:10.692Z,50.03
2023-03-26T13:15:43.646Z,47.78
2023-03-26T13:18:44.752Z,54.00
2023-03-26T13:21:57.476Z,48.05
2023-03-26T13:24:46.673Z,45.85
2023-03-26T13:27:21.958Z,44.17
2023-03-26T13:30:19.760Z,49.22
2023-03-26T13:33:05.269Z,50.72
2023-03-26T13:36:14.286Z,31.55
2023-03-26T13:38:59.193Z,41.85
2023-03-26T13:41:55.380Z,44.50
2023-03-26T13:44:28.316Z,38.67
2023-03-26T13:47:11.187Z,40.22
2023-03-26T13:49:52.173Z,44.20
2023-03-26T13:52:25.040Z,42.35
2023-03-26T13:55:17.776Z,41.03
2023-03-26T13:58:09.721Z,48.38
2023-03-26T14:00:47.994Z,29.90
2023-03-26T14:03:26.646Z,42.60
2023-03-26T14:05:57.649Z,43.20
2023-03-26T14:08:39.994Z,39.70
2023-03-26T14:11:28.709Z,39.60
2023-03-26T14:14:26.640Z,37.70
2023-03-26T14:17:03.880Z,32.88
2023-03-26T14:19:31.223Z,31.23
2023-03-26T14:22:44.501Z,34.63
2023-03-26T14:25:33.501Z,37.25
2023-03-26T14:28:16.868Z,38.60
2023-03-26T14:30:59.375Z,33.50
2023-03-26T14:33:59.886Z,26.67
2023-03-26T14:36:56.339Z,35.20
2023-03-26T14:39:30.941Z,32.97
2023-03-26T14:42:27.219Z,31.50
2023-03-26T14:45:07.535Z,32.15
2023-03-26T14:47:43.520Z,33.33
2023-03-26T14:50:22.537Z,32.78
2023-03-26T14:52:51.995Z,30.77
2023-03-26T14:55:39.562Z,32.15
2023-03-26T14:58:34.238Z,43.78
2023-03-26T15:01:52.963Z,34.55
2023-03-26T15:04:51.220Z,44.75
2023-03-26T15:07:33.350Z,52.65
2023-03-26T15:10:32.732Z,41.80
2023-03-26T15:13:39.899Z,41.97
2023-03-26T15:16:45.819Z,48.25
2023-03-26T15:19:50.215Z,35.08
2023-03-26T15:22:35.947Z,38.28
2023-03-26T15:25:33.008Z,34.45
2023-03-26T15:28:18.624Z,37.03
2023-03-26T15:30:59.241Z,41.72
2023-03-26T15:33:45.491Z,48.97
2023-03-26T15:36:24.984Z,41.10
2023-03-26T15:39:25.930Z,40.40
2023-03-26T15:42:18.417Z,31.77
2023-03-26T15:45:08.084Z,47.35
2023-03-26T15:48:01.553Z,38.35
2023-03-26T15:50:38.292Z,30.52
2023-03-26T15:53:18.967Z,41.15
2023-03-26T15:56:00.898Z,33.67
2023-03-26T15:58:34.828Z,36.50
2023-03-26T16:01:32.460Z,39.28
2023-03-26T16:04:18.346Z,38.65
2023-03-26T16:07:09.815Z,31.10
2023-03-26T16:09:42.656Z,31.42
2023-03-26T16:12:12.769Z,38.53
2023-03-26T16:14:48.379Z,37.33
2023-03-26T16:17:23.674Z,33.08
2023-03-26T16:20:16.485Z,38.83
2023-03-26T16:23:08.104Z,26.98
2023-03-26T16:25:53.346Z,30.98
2023-03-26T16:28:27.644Z,30.88
2023-03-26T16:31:23.528Z,32.72
2023-03-26T16:34:06.120Z,26.90
2023-03-26T16:36:34.829Z,35.75
2023-03-26T16:39:10.749Z,25.52
2023-03-26T16:41:45.517Z,26.55
2023-03-26T16:44:18.631Z,26.75
2023-03-26T16:47:08.284Z,34.03
2023-03-26T16:49:44.622Z,32.05
2023-03-26T16:52:20.726Z,30.15
2023-03-26T16:55:01.558Z,34.42
2023-03-26T16:57:37.195Z,35.63
2023-03-26T17:00:14.286Z,39.38
2023-03-26T17:02:41.857Z,27.13
2023-03-26T17:05:43.134Z,30.10
2023-03-26T17:08:37.220Z,26.77
2023-03-26T17:11:36.630Z,34.22
2023-03-26T17:14:28.121Z,32.20
2023-03-26T17:17:39.986Z,36.40
2023-03-26T17:20:33.579Z,37.25
2023-03-26T17:23:31.880Z,36.78
2023-03-26T17:26:19.452Z,42.13
2023-03-26T17:29:31.257Z,31.73
2023-03-26T17:32:14.668Z,31.85
2023-03-26T17:34:50.787Z,41.53
2023-03-26T17:37:19.122Z,37.53
2023-03-26T17:39:48.786Z,32.20
2023-03-26T17:42:33.351Z,35.47
2023-03-26T17:45:03.792Z,29.42
2023-03-26T17:47:39.684Z,32.10
2023-03-26T17:50:32.826Z,29.55
2023-03-26T17:53:17.159Z,25.27
2023-03-26T17:55:46.129Z,24.52
2023-03-26T17:58:38.049Z,34.08
2023-03-26T18:01:17.705Z,32.42
2023-03-26T18:03:53.015Z,28.92
2023-03-26T18:06:50.186Z,35.20
2023-03-26T18:09:29.156Z,33.63
2023-03-26T18:12:19.151Z,31.92
2023-03-26T18:14:58.379Z,38.28
2023-03-26T18:17:26.103Z,34.85
2023-03-26T18:19:56.000Z,30.15
2023-03-26T18:22:28.881Z,39.00
2023-03-26T18:25:00.414Z,29.42
2023-03-26T18:27:37.295Z,30.38
2023-03-26T18:30:16.504Z,36.08
2023-03-26T18:33:04.214Z,38.45
2023-03-26T18:35:43.564Z,35.67
2023-03-26T18:38:18.926Z,34.42
2023-03-26T18:41:04.101Z,26.33
2023-03-26T18:43:35.533Z,39.22
2023-03-26T18:46:04.464Z,30.02
2023-03-26T18:48:31.759Z,31.15
2023-03-26T18:51:05.877Z,30.13
2023-03-26T18:53:56.520Z,32.55
2023-03-26T18:56:39.300Z,28.83
2023-03-26T18:59:22.275Z,38.45
2023-03-26T19:01:51.078Z,37.83
2023-03-26T19:04:18.926Z,36.75
2023-03-26T19:06:46.557Z,26.65
2023-03-26T19:09:28.637Z,42.17
2023-03-26T19:12:14.858Z,39.75
2023-03-26T19:14:54.824Z,37.63
2023-03-26T19:17:22.949Z,39.50
2023-03-26T19:19:51.034Z,31.02
2023-03-26T19:22:20.286Z,32.53
2023-03-26T19:24:48.085Z,44.70
2023-03-26T19:27:15.859Z,44.03
2023-03-26T19:29:44.512Z,41.13
2023-03-26T19:32:21.716Z,47.40
2023-03-26T19:34:49.214Z,44.47
2023-03-26T19:37:25.450Z,41.58
2023-03-26T19:40:13.087Z,42.15
2023-03-26T19:42:44.151Z,44.53
2023-03-26T19:45:23.359Z,38.75
2023-03-26T19:48:03.630Z,41.00
2023-03-26T19:50:36.960Z,38.97
2023-03-26T19:53:19.329Z,41.92
2023-03-26T19:56:06.318Z,45.90
2023-03-26T19:58:35.509Z,41.58
2023-03-26T20:01:06.836Z,47.08
2023-03-26T20:03:41.288Z,39.53
2023-03-26T20:06:13.111Z,38.33
2023-03-26T20:08:40.923Z,38.75
2023-03-26T20:11:16.767Z,38.38
2023-03-26T20:13:43.932Z,46.55
2023-03-26T20:16:14.365Z,50.38
2023-03-26T20:18:41.759Z,47.65
2023-03-26T20:21:12.935Z,51.97
2023-03-26T20:23:41.310Z,46.45
2023-03-26T20:26:14.406Z,50.83
2023-03-26T20:28:48.421Z,66.10
2023-03-26T20:31:25.668Z,67.78
2023-03-26T20:33:54.224Z,52.95
2023-03-26T20:36:33.720Z,58.28
2023-03-26T20:39:08.532Z,52.78
2023-03-26T20:41:38.309Z,65.93
2023-03-26T20:44:15.830Z,54.65
2023-03-26T20:46:44.181Z,52.53
2023-03-26T20:49:12.048Z,51.45
2023-03-26T20:51:42.145Z,43.50
2023-03-26T20:54:18.522Z,52.75
2023-03-26T20:56:48.106Z,42.80
2023-03-26T20:59:19.397Z,41.67
2023-03-26T21:01:49.323Z,50.22
2023-03-26T21:04:17.740Z,48.80
2023-03-26T21:06:45.256Z,42.20
2023-03-26T21:09:17.920Z,49.67
2023-03-26T21:12:06.252Z,48.53
2023-03-26T21:14:44.898Z,39.95
2023-03-26T21:17:20.899Z,48.47
2023-03-26T21:19:49.504Z,38.40
2023-03-26T21:22:28.453Z,41.70
2023-03-26T21:25:15.534Z,37.30
2023-03-26T21:28:12.241Z,40.45
2023-03-26T21:30:40.196Z,36.20
2023-03-26T21:33:07.514Z,41.67
2023-03-26T21:35:35.710Z,41.50
2023-03-26T21:38:07.051Z,36.95
2023-03-26T21:40:34.522Z,36.88
2023-03-26T21:43:02.173Z,46.35
2023-03-26T21:45:30.295Z,35.28
2023-03-26T21:47:57.821Z,40.65
2023-03-26T21:50:25.259Z,29.55
2023-03-26T21:52:52.812Z,41.38
2023-03-26T21:55:24.598Z,42.08
2023-03-26T21:58:19.637Z,53.10
2023-03-26T22:01:04.356Z,53.83
2023-03-26T22:04:22.010Z,55.28
2023-03-26T22:07:14.410Z,54.65
2023-03-26T22:09:41.994Z,47.95
2023-03-26T22:12:10.672Z,57.00
2023-03-26T22:14:38.205Z,46.13
2023-03-26T22:17:05.989Z,46.85
2023-03-26T22:19:34.787Z,38.90
2023-03-26T22:22:02.431Z,44.85
2023-03-26T22:24:29.659Z,35.45
2023-03-26T22:26:56.953Z,40.13
2023-03-26T22:29:24.086Z,42.35
2023-03-26T22:31:51.454Z,40.50
2023-03-26T22:34:19.846Z,42.47
2023-03-26T22:36:47.214Z,41.72
2023-03-26T22:39:14.585Z,36.60
2023-03-26T22:41:41.796Z,39.65
2023-03-26T22:44:19.935Z,37.42
2023-03-26T22:46:51.734Z,30.77
2023-03-26T22:49:19.205Z,45.88
2023-03-26T22:51:46.345Z,30.42
2023-03-26T22:54:13.462Z,43.10
2023-03-26T22:56:40.836Z,32.90
2023-03-26T22:59:08.015Z,37.55
2023-03-26T23:01:35.172Z,36.75
2023-03-26T23:04:02.718Z,30.83
2023-03-26T23:06:29.904Z,30.98
2023-03-26T23:08:57.426Z,36.17
2023-03-26T23:11:24.548Z,37.58
2023-03-26T23:13:52.015Z,32.60
2023-03-26T23:16:21.775Z,29.38
2023-03-26T23:18:48.929Z,33.88
2023-03-26T23:21:18.629Z,29.50
2023-03-26T23:23:46.504Z,29.05
2023-03-26T23:26:15.056Z,37.92
2023-03-26T23:28:42.266Z,32.47
2023-03-26T23:31:11.057Z,27.70
2023-03-26T23:33:39.999Z,32.13
2023-03-26T23:36:09.334Z,26.42
2023-03-26T23:38:44.282Z,35.05
2023-03-26T23:41:15.516Z,29.00
2023-03-26T23:43:54.635Z,22.60
2023-03-26T23:46:34.885Z,28.42
2023-03-26T23:49:05.146Z,30.40
2023-03-26T23:51:32.931Z,52.97
2023-03-26T23:54:00.844Z,45.67
2023-03-26T23:56:28.081Z,38.53
2023-03-26T23:58:55.441Z,35.08
